King Gregory — SVBP8 — position and weather

sailwx.info

Track history (hours):
 
Tides and Currents Weather Stations Pressure Air Temp Water Temp Dewpoint Dewpoint Depression Visibility Wind Speed Wind Dir Waves Ship Positions

King Gregory

Last reported at 2018-Jul-15 11:48 UTC. Time now 2018-Jul-18 05:09 UTC.
Position N 09°14' W 079°56'.

Length 183 m; draft 12 m.

Type: Ship. MMSI: 241220000.

Date/timePositionNaut miles runAvg speedWind from/ knotsBaromVisibWave heightAir tempDewpointWater temp
2018-Jul-15 11:48N 09°14' W 079°56'2 6.5
2018-Jul-15 11:29N 09°16' W 079°55'0 0.6
2018-Jul-15 10:55N 09°16' W 079°55'0 0.4
2018-Jul-15 10:30N 09°16' W 079°55'1 0.5
2018-Jul-15 09:26N 09°17' W 079°55'1 2.4
2018-Jul-15 09:00N 09°18' W 079°55'4 6.9
2018-Jul-15 08:29N 09°22' W 079°55'3 6.1
2018-Jul-15 08:00N 09°25' W 079°55'3 5.2
2018-Jul-15 07:30N 09°27' W 079°55'4 7.1
2018-Jul-15 07:00N 09°31' W 079°55'1 0.7
2018-Jul-15 05:51N 09°30' W 079°56'0 0.0
2018-Jul-15 05:03N 09°30' W 079°56'0 0.1
2018-Jul-15 04:54N 09°30' W 079°56'0 0.1
2018-Jul-15 04:15N 09°30' W 079°56'0 0.5
2018-Jul-15 04:00N 09°30' W 079°56'2 3.1
2018-Jul-15 03:30N 09°29' W 079°55'  
2018-Jul-09 19:45N 28°52' W 095°14'3 9.1
2018-Jul-09 19:28N 28°54' W 095°16'3 6.5
2018-Jul-09 18:58N 28°57' W 095°18'0 0.0
2018-Jul-08 07:30N 28°57' W 095°18'1 2.6
2018-Jul-08 07:00N 28°56' W 095°17'611.3
2018-Jul-08 06:30N 28°52' W 095°13'611.1
2018-Jul-08 05:59N 28°48' W 095°08'714.1
2018-Jul-08 05:30N 28°43' W 095°03'  
Track history (hours):
 
Tides and Currents Weather Stations Pressure Air Temp Water Temp Dewpoint Dewpoint Depression Visibility Wind Speed Wind Dir Waves Ship Positions

King Gregory

Last reported at 2018-Jul-15 11:48 UTC. Time now 2018-Jul-18 05:09 UTC.
Position N 09°14' W 079°56'.

Length 183 m; draft 12 m.

Type: Ship. MMSI: 241220000.

Date/timePositionNaut miles runAvg speedWind from/ knotsBaromVisibWave heightAir tempDewpointWater temp
2018-Jul-15 11:48N 09°14' W 079°56'2 6.5
2018-Jul-15 11:29N 09°16' W 079°55'0 0.6
2018-Jul-15 10:55N 09°16' W 079°55'0 0.4
2018-Jul-15 10:30N 09°16' W 079°55'1 0.5
2018-Jul-15 09:26N 09°17' W 079°55'1 2.4
2018-Jul-15 09:00N 09°18' W 079°55'4 6.9
2018-Jul-15 08:29N 09°22' W 079°55'3 6.1
2018-Jul-15 08:00N 09°25' W 079°55'3 5.2
2018-Jul-15 07:30N 09°27' W 079°55'4 7.1
2018-Jul-15 07:00N 09°31' W 079°55'1 0.7
2018-Jul-15 05:51N 09°30' W 079°56'0 0.0
2018-Jul-15 05:03N 09°30' W 079°56'0 0.1
2018-Jul-15 04:54N 09°30' W 079°56'0 0.1
2018-Jul-15 04:15N 09°30' W 079°56'0 0.5
2018-Jul-15 04:00N 09°30' W 079°56'2 3.1
2018-Jul-15 03:30N 09°29' W 079°55'  
2018-Jul-09 19:45N 28°52' W 095°14'3 9.1
2018-Jul-09 19:28N 28°54' W 095°16'3 6.5
2018-Jul-09 18:58N 28°57' W 095°18'0 0.0
2018-Jul-08 07:30N 28°57' W 095°18'1 2.6
2018-Jul-08 07:00N 28°56' W 095°17'611.3
2018-Jul-08 06:30N 28°52' W 095°13'611.1
2018-Jul-08 05:59N 28°48' W 095°08'714.1
2018-Jul-08 05:30N 28°43' W 095°03'  

Dump ship's entire track history